Portada
METAR-TAF:

METAR-TAF

Aeroports :

Zamboanga, Filipines

latitud: 06-54N, longitud: 122-04E, altitud: 5 m

Observació

L'informe es va fer fa 41 minuts, a les 21:00 UTC
Vent 2 kt del Est/Nord-Est
Temperatura 25°C
Humitat 94%
Pressió 1011 hPa
Visibilitat 10 km o més
Escasses núvols a una alçada de 1700 ft

METAR: RPMZ 262100Z 07002KT 9999 FEW017 25/24 Q1011 RMK A2985

Hora: 05:41 (21:41 UTC)

Pronòstic

L'informe es va fer fa 4 hores i 41 minuts, a les 17:00 UTC
Pronòstic vàlid del 26 a les 18 UTC al 27 a les 18 UTC
Vent 4 kt del Oest
Visibilitat 10 km o més
Escasses núvols a una alçada de 1700 ft
Núvols disperses a una alçada de 30000 ft
Temporalment
l' 26 a les 18 UTC al 26 a les 24 UTC
Vent 2 kt amb direcció variable
Escasses núvols a una alçada de 1700 ft
Núvols disperses a una alçada de 9000 ft

TAF: RPMZ 261700Z 2618/2718 26004KT 9999 FEW017 SCT300 TEMPO 2618/2624 VRB02KT FEW017 SCT090

Observacions i pronòstics meteorològics de més de 4000 aeroports (METAR i TAF).

Les estacions disponibles són els punts grocs i vermells al mapa.

Posi el ratolí al punt desitjat per veure el nom de l'estació.

Feu clic per veure les observacions i els pronòstics meteorològics.

Per canviar el mapa: feu clic els botons verds amb una creu de color negre per apropar; al botó verd amb un guió per allunyar la imatge; o en les fletxes verdes per a mapes adjacents.


METAR-TAF: